Time;durP1;ratioP1;P1;durP2;ratioP2;P2;SDS_P1;SDS_P2;PMS_P1;PMS_P2;Temp;Humidity;BMP_temperature;BMP_pressure;BME280_temperature;BME280_humidity;BME280_pressure;Samples;Min_cycle;Max_cycle;Signal;HPM_P1;HPM_P2
2021/10/13 00:00:12;;;;;;;32.45;21.15;;;;;;;7.73;75.29;99834.52;1754037;81;25700;-58
2021/10/13 00:02:42;;;;;;;35.55;21.10;;;;;;;7.73;75.02;99831.30;1754226;81;25747;-59
2021/10/13 00:05:10;;;;;;;38.00;21.77;;;;;;;7.73;74.85;99828.61;1754218;81;25668;-57
2021/10/13 00:07:37;;;;;;;35.15;20.25;;;;;;;7.73;74.81;99834.52;1754122;81;25459;-57
2021/10/13 00:10:06;;;;;;;34.80;21.75;;;;;;;7.71;74.60;99840.20;1754096;81;27342;-59
2021/10/13 00:12:34;;;;;;;37.17;22.50;;;;;;;7.70;75.09;99839.97;1752203;81;25630;-60
2021/10/13 00:15:08;;;;;;;37.03;21.57;;;;;;;7.66;75.00;99845.69;1755898;81;25631;-59
2021/10/13 00:17:34;;;;;;;35.15;21.87;;;;;;;7.65;75.08;99845.46;1755892;81;25683;-58
2021/10/13 00:20:04;;;;;;;37.88;21.90;;;;;;;7.63;75.20;99846.31;1755922;81;25538;-58
2021/10/13 00:22:34;;;;;;;33.67;22.37;;;;;;;7.63;75.24;99847.66;1755905;81;27330;-58
2021/10/13 00:25:00;;;;;;;39.83;22.55;;;;;;;7.62;75.35;99847.41;1755961;81;35331;-58
2021/10/13 00:27:28;;;;;;;36.05;23.18;;;;;;;7.60;75.40;99843.66;1755880;81;25514;-58
2021/10/13 00:29:55;;;;;;;39.58;23.85;;;;;;;7.58;75.19;99847.20;1755883;81;25611;-59
2021/10/13 00:32:22;;;;;;;36.28;24.15;;;;;;;7.55;75.24;99843.77;1755906;81;25491;-58
2021/10/13 00:34:48;;;;;;;37.50;24.18;;;;;;;7.56;75.44;99845.89;1755877;81;27399;-58
2021/10/13 00:37:15;;;;;;;39.73;25.02;;;;;;;7.57;75.61;99852.33;1755824;81;25454;-58
2021/10/13 00:39:42;;;;;;;38.28;24.70;;;;;;;7.59;75.63;99852.03;1755845;81;25571;-58
2021/10/13 00:42:09;;;;;;;38.92;25.45;;;;;;;7.60;75.53;99849.60;1755869;81;26238;-58
2021/10/13 00:44:35;;;;;;;41.68;24.67;;;;;;;7.62;75.54;99854.13;1755927;81;25842;-59
2021/10/13 00:47:04;;;;;;;39.10;24.18;;;;;;;7.63;75.67;99854.39;1755865;81;27333;-58
2021/10/13 00:49:31;;;;;;;36.40;23.65;;;;;;;7.64;75.65;99857.31;1755797;81;25662;-58
2021/10/13 00:52:02;;;;;;;36.35;22.95;;;;;;;7.65;75.54;99849.50;1755890;81;25723;-59
2021/10/13 00:54:28;;;;;;;33.58;21.60;;;;;;;7.66;75.50;99855.11;1755876;81;25776;-59
2021/10/13 00:56:56;;;;;;;40.58;22.95;;;;;;;7.67;75.45;99854.03;1755928;81;25668;-59
2021/10/13 00:59:22;;;;;;;36.10;23.22;;;;;;;7.67;75.66;99854.03;1755872;81;27964;-59
2021/10/13 01:02:06;;;;;;;34.78;22.22;;;;;;;7.68;75.72;99856.98;1755804;81;25659;-59
2021/10/13 01:04:55;;;;;;;35.28;23.10;;;;;;;7.68;75.63;99856.98;1755985;81;25518;-60
2021/10/13 01:08:00;;;;;;;33.92;22.62;;;;;;;7.70;75.66;99856.69;1755817;81;25699;-60
2021/10/13 01:11:05;;;;;;;34.95;21.73;;;;;;;7.69;75.71;99857.21;1755892;81;25564;-58
2021/10/13 01:13:57;;;;;;;34.15;22.15;;;;;;;7.67;75.63;99853.47;1752233;81;27344;-58
2021/10/13 01:16:52;;;;;;;33.00;20.65;;;;;;;7.69;75.77;99854.52;1752051;81;25511;-59
2021/10/13 01:19:39;;;;;;;33.65;21.62;;;;;;;7.70;75.69;99852.09;1752132;81;25518;-59
2021/10/13 01:22:36;;;;;;;37.80;22.32;;;;;;;7.72;75.99;99857.97;1752045;81;25694;-60
2021/10/13 01:25:26;;;;;;;37.08;21.85;;;;;;;7.72;75.87;99854.48;1660000;86;25528;-57
2021/10/13 01:28:05;;;;;;;37.55;22.30;;;;;;;7.73;75.80;99856.87;1658469;86;27403;-58
2021/10/13 01:30:55;;;;;;;38.48;23.98;;;;;;;7.74;75.79;99858.45;1654968;86;25769;-59
2021/10/13 01:33:27;;;;;;;38.20;22.52;;;;;;;7.77;75.71;99865.15;1657462;86;25702;-59
2021/10/13 01:35:59;;;;;;;35.40;22.02;;;;;;;7.79;75.97;99861.60;1660109;86;25627;-59
2021/10/13 01:38:30;;;;;;;37.03;23.25;;;;;;;7.80;76.03;99861.86;1660168;85;25693;-59
2021/10/13 01:41:02;;;;;;;39.88;23.42;;;;;;;7.79;75.87;99860.25;1660177;85;27323;-59
2021/10/13 01:43:35;;;;;;;35.80;23.30;;;;;;;7.81;75.89;99865.57;1660062;86;25697;-59
2021/10/13 01:46:04;;;;;;;39.27;23.70;;;;;;;7.81;75.90;99864.78;1660191;86;25588;-58
2021/10/13 01:48:32;;;;;;;38.60;24.20;;;;;;;7.82;75.91;99867.73;1660295;86;25816;-57
2021/10/13 01:51:01;;;;;;;34.83;23.57;;;;;;;7.82;75.86;99874.47;1660190;86;25623;-58
2021/10/13 01:53:27;;;;;;;37.80;23.50;;;;;;;7.80;75.77;99870.73;1660357;86;27346;-57
2021/10/13 01:55:57;;;;;;;40.20;23.77;;;;;;;7.80;75.75;99873.98;1660093;86;25746;-59
2021/10/13 01:58:27;;;;;;;41.25;25.75;;;;;;;7.79;75.81;99878.55;1660283;86;25718;-58
2021/10/13 02:00:54;;;;;;;;;;;;;;;7.78;75.83;99874.27;1665931;84;26415;-58
2021/10/13 02:03:25;;;;;;;39.30;23.52;;;;;;;7.80;75.95;99879.36;1742310;81;25467;-58
2021/10/13 02:05:58;;;;;;;39.73;24.80;;;;;;;7.81;75.81;99874.20;1752094;81;27320;-58
2021/10/13 02:08:26;;;;;;;39.18;25.10;;;;;;;7.79;75.82;99879.89;1728792;81;25708;-58
2021/10/13 02:10:57;;;;;;;44.48;26.37;;;;;;;7.79;75.92;99881.23;1752023;81;25748;-58
2021/10/13 02:13:25;;;;;;;40.08;25.12;;;;;;;7.75;75.82;99876.22;1751985;81;25710;-58
2021/10/13 02:15:55;;;;;;;45.58;26.48;;;;;;;7.75;76.20;99888.89;1752076;81;25654;-58
2021/10/13 02:18:24;;;;;;;;;;;;;;;7.70;75.90;99893.81;1754664;81;27338;-58
2021/10/13 02:20:51;;;;;;;41.45;25.70;;;;;;;7.68;76.03;99893.32;1752106;81;25443;-58
2021/10/13 02:23:21;;;;;;;44.70;25.92;;;;;;;7.64;76.01;99897.69;1730514;82;25545;-58
2021/10/13 02:25:50;;;;;;;42.90;27.55;;;;;;;7.64;76.11;99901.73;1718491;83;26360;-58
2021/10/13 02:28:28;;;;;;;43.28;25.35;;;;;;;7.61;76.05;99901.79;1688291;85;25698;-57
2021/10/13 02:30:54;;;;;;;42.80;25.25;;;;;;;7.60;76.12;99895.36;1725687;83;27977;-59
2021/10/13 02:33:24;;;;;;;46.92;25.92;;;;;;;7.58;76.10;99904.28;1726189;83;25704;-60
2021/10/13 02:35:51;;;;;;;;;;;;;;;7.57;76.15;99900.77;1728794;83;25699;-60
2021/10/13 02:38:18;;;;;;;47.00;26.48;;;;;;;7.55;76.32;99898.94;1726209;83;25683;-60
2021/10/13 02:40:45;;;;;;;47.95;26.35;;;;;;;7.52;76.25;99899.52;1726228;83;25642;-59
2021/10/13 02:43:12;;;;;;;43.60;25.55;;;;;;;7.49;76.28;99900.11;1752042;81;27961;-59
2021/10/13 02:45:44;;;;;;;40.33;25.17;;;;;;;7.47;76.37;99900.44;1751909;81;25626;-60
2021/10/13 02:48:18;;;;;;;52.40;24.52;;;;;;;7.47;76.40;99899.09;1751993;81;25653;-58
2021/10/13 02:50:59;;;;;;;40.80;23.52;;;;;;;7.46;76.38;99903.42;1752019;81;25599;-58
2021/10/13 02:53:40;;;;;;;41.80;22.60;;;;;;;7.45;76.39;99908.55;1752076;81;25612;-58
2021/10/13 02:56:23;;;;;;;40.55;23.07;;;;;;;7.43;76.45;99907.49;1718491;83;28053;-58
2021/10/13 02:59:04;;;;;;;41.37;23.22;;;;;;;7.41;76.53;99912.94;1717463;82;25813;-58
2021/10/13 03:01:44;;;;;;;43.95;22.80;;;;;;;7.36;76.50;99918.41;1688178;85;25539;-59
2021/10/13 03:04:21;;;;;;;39.03;22.30;;;;;;;7.37;76.61;99918.64;1688269;85;25614;-59
2021/10/13 03:07:02;;;;;;;45.80;22.48;;;;;;;7.31;76.45;99917.16;1718450;83;25678;-58
2021/10/13 03:09:33;;;;;;;38.73;21.97;;;;;;;7.26;76.56;99920.72;1718033;83;27337;-58
2021/10/13 03:12:07;;;;;;;40.58;23.02;;;;;;;7.23;76.55;99932.06;1690106;84;25699;-57
2021/10/13 03:14:36;;;;;;;37.58;22.07;;;;;;;7.22;76.70;99933.15;1724175;83;25640;-58
2021/10/13 03:17:04;;;;;;;35.50;20.43;;;;;;;7.17;76.52;99940.78;1708320;83;26190;-58
2021/10/13 03:19:35;;;;;;;35.68;21.48;;;;;;;7.13;76.47;99947.83;1708247;84;25487;-58
2021/10/13 03:22:02;;;;;;;35.35;21.33;;;;;;;7.11;76.55;99950.02;1708204;83;27327;-60
2021/10/13 03:24:29;;;;;;;34.75;20.45;;;;;;;7.10;76.66;99954.61;1708140;84;25692;-58
2021/10/13 03:26:56;;;;;;;31.97;19.07;;;;;;;7.08;76.64;99960.01;1708227;84;25635;-58
2021/10/13 03:29:23;;;;;;;32.88;19.17;;;;;;;7.06;76.75;99958.16;1708158;84;25720;-58
2021/10/13 03:31:49;;;;;;;28.23;18.12;;;;;;;7.01;76.74;99964.41;1708237;84;25716;-58
2021/10/13 03:34:17;;;;;;;31.33;20.15;;;;;;;6.98;76.71;99959.64;1708207;84;27407;-58
2021/10/13 03:36:49;;;;;;;32.45;19.30;;;;;;;6.95;76.76;99964.78;1708126;84;25696;-57
2021/10/13 03:39:18;;;;;;;33.00;19.65;;;;;;;6.90;76.81;99967.02;1710309;83;25700;-57
2021/10/13 03:41:46;;;;;;;31.33;19.47;;;;;;;6.82;76.86;99960.41;1708414;84;25596;-58
2021/10/13 03:44:13;;;;;;;33.98;19.98;;;;;;;6.79;77.01;99969.59;1708210;84;25492;-58
2021/10/13 03:46:40;;;;;;;34.13;19.75;;;;;;;6.77;77.07;99965.85;1708189;84;27402;-57
2021/10/13 03:49:08;;;;;;;33.13;18.98;;;;;;;6.76;77.49;99966.14;1686736;84;25643;-57
2021/10/13 03:51:34;;;;;;;32.08;19.30;;;;;;;6.73;77.35;99971.02;1679570;84;25541;-57
2021/10/13 03:54:01;;;;;;;35.78;19.90;;;;;;;6.73;77.41;99966.98;1705662;83;25618;-58
2021/10/13 03:56:33;;;;;;;33.02;19.90;;;;;;;6.76;77.63;99967.48;1708230;84;25653;-58
2021/10/13 03:59:00;;;;;;;35.40;20.97;;;;;;;6.76;77.51;99964.80;1708220;84;27339;-57
2021/10/13 04:01:27;;;;;;;44.95;22.22;;;;;;;6.73;77.61;99962.95;1708093;84;25626;-58
2021/10/13 04:03:53;;;;;;;36.70;21.95;;;;;;;6.64;77.51;99957.98;1708196;84;25535;-58
2021/10/13 04:06:20;;;;;;;38.78;20.88;;;;;;;6.66;77.74;99969.24;1708161;84;25708;-58
2021/10/13 04:08:47;;;;;;;34.53;19.77;;;;;;;6.61;77.66;99972.00;1708166;84;25721;-58
2021/10/13 04:11:14;;;;;;;35.80;20.80;;;;;;;6.59;77.77;99970.67;1708167;83;27393;-57
2021/10/13 04:13:40;;;;;;;32.17;20.20;;;;;;;6.56;77.84;99974.76;1688679;83;25481;-58
2021/10/13 04:16:07;;;;;;;33.42;20.15;;;;;;;6.56;78.00;99982.82;1717597;83;25491;-58
2021/10/13 04:18:34;;;;;;;37.93;21.07;;;;;;;6.57;78.30;99980.92;1717461;83;25595;-58
2021/10/13 04:21:01;;;;;;;35.20;21.23;;;;;;;6.54;78.09;99983.11;1719141;82;25666;-58
2021/10/13 04:23:28;;;;;;;33.58;20.05;;;;;;;6.53;78.15;99979.36;1718904;82;27910;-58
2021/10/13 04:25:55;;;;;;;33.35;19.25;;;;;;;6.51;78.19;99988.27;1719533;83;25926;-57
2021/10/13 04:28:21;;;;;;;33.23;18.70;;;;;;;6.49;78.13;99992.58;1723635;81;25503;-57
2021/10/13 04:30:49;;;;;;;33.42;19.30;;;;;;;6.49;78.31;99994.48;1723610;83;25727;-57
2021/10/13 04:33:15;;;;;;;34.13;19.87;;;;;;;6.50;78.39;99995.53;1723584;81;25538;-57
2021/10/13 04:35:42;;;;;;;34.33;20.85;;;;;;;6.49;78.40;99993.92;1723600;82;27938;-57
2021/10/13 04:38:09;;;;;;;31.23;19.90;;;;;;;6.50;78.49;99990.16;1723486;83;25621;-57
2021/10/13 04:40:36;;;;;;;34.58;20.02;;;;;;;6.51;78.55;99993.09;1723380;82;25459;-58
2021/10/13 04:43:03;;;;;;;32.73;20.60;;;;;;;6.49;78.50;99988.55;1723557;83;25637;-57
2021/10/13 04:45:30;;;;;;;29.23;19.50;;;;;;;6.49;78.52;99995.82;1723880;82;25546;-57
2021/10/13 04:47:57;;;;;;;33.92;20.57;;;;;;;6.48;78.50;99991.52;1723506;81;27970;-57
2021/10/13 04:50:24;;;;;;;30.90;20.05;;;;;;;6.47;78.58;100000.66;1723480;83;25653;-57
2021/10/13 04:52:50;;;;;;;32.53;21.42;;;;;;;6.48;78.65;100002.27;1723728;83;25495;-58
2021/10/13 04:55:19;;;;;;;33.67;21.07;;;;;;;6.49;78.65;100004.67;1723583;82;25631;-58
2021/10/13 04:57:46;;;;;;;34.75;21.25;;;;;;;6.50;78.64;100004.94;1723960;82;25490;-57
2021/10/13 05:00:14;;;;;;;35.90;21.82;;;;;;;6.52;78.65;100004.62;1724710;82;28047;-58
2021/10/13 05:02:41;;;;;;;33.35;21.23;;;;;;;6.56;78.63;100010.25;1723757;82;25704;-58
2021/10/13 05:05:08;;;;;;;32.67;21.00;;;;;;;6.60;78.71;100020.66;1723615;82;25481;-58
2021/10/13 05:07:35;;;;;;;31.10;21.52;;;;;;;6.62;78.59;100020.61;1723480;82;25606;-58
2021/10/13 05:10:04;;;;;;;34.75;21.30;;;;;;;6.64;78.61;100021.15;1723658;83;25483;-58
2021/10/13 05:12:31;;;;;;;35.92;21.48;;;;;;;6.65;78.47;100021.39;1724517;81;27316;-58
2021/10/13 05:14:58;;;;;;;33.58;21.80;;;;;;;6.66;78.42;100030.27;1752042;81;25480;-58
2021/10/13 05:17:25;;;;;;;37.80;22.25;;;;;;;6.65;78.43;100029.45;1752079;81;25479;-57
2021/10/13 05:19:52;;;;;;;37.03;22.60;;;;;;;6.63;78.51;100027.59;1752063;81;26297;-59
2021/10/13 05:22:19;;;;;;;35.48;21.93;;;;;;;6.65;78.57;100037.52;1752114;81;25701;-58
2021/10/13 05:24:46;;;;;;;35.92;21.52;;;;;;;6.64;78.59;100035.11;1752086;81;27420;-58
2021/10/13 05:27:13;;;;;;;33.55;20.85;;;;;;;6.65;78.58;100042.89;1751983;81;25774;-58
2021/10/13 05:29:40;;;;;;;37.67;22.52;;;;;;;6.66;78.65;100047.74;1752060;81;25720;-58
2021/10/13 05:32:09;;;;;;;37.53;22.95;;;;;;;6.65;78.69;100044.78;1752050;81;26177;-58
2021/10/13 05:34:36;;;;;;;34.75;21.68;;;;;;;6.67;78.82;100053.35;1752105;81;25487;-58
2021/10/13 05:37:03;;;;;;;38.13;22.05;;;;;;;6.68;78.79;100057.09;1752072;81;28464;-58
2021/10/13 05:39:30;;;;;;;37.55;22.17;;;;;;;6.71;78.84;100059.77;1751974;81;25656;-58
2021/10/13 05:41:59;;;;;;;38.02;22.62;;;;;;;6.73;78.92;100060.27;1752082;81;25655;-58
2021/10/13 05:44:26;;;;;;;36.53;22.73;;;;;;;6.74;78.98;100063.20;1752287;81;25713;-57
2021/10/13 05:46:53;;;;;;;41.73;23.95;;;;;;;6.78;79.07;100071.52;1752099;81;25634;-59
2021/10/13 05:49:19;;;;;;;35.85;22.75;;;;;;;6.80;79.19;100067.98;1752051;81;27332;-57
2021/10/13 05:51:48;;;;;;;41.05;24.80;;;;;;;6.80;79.01;100074.16;1751978;81;25864;-57
2021/10/13 05:54:14;;;;;;;41.55;23.52;;;;;;;6.83;78.97;100079.52;1752067;81;25702;-57
2021/10/13 05:56:42;;;;;;;37.08;23.52;;;;;;;6.84;79.05;100079.75;1752040;81;25609;-58
2021/10/13 05:59:10;;;;;;;36.75;22.93;;;;;;;6.86;79.11;100091.01;1752078;81;25707;-58
2021/10/13 06:01:36;;;;;;;39.38;22.82;;;;;;;6.86;78.98;100093.17;1752063;81;27935;-59
2021/10/13 06:04:04;;;;;;;35.83;21.85;;;;;;;6.86;79.05;100095.86;1751970;81;25551;-58
2021/10/13 06:06:31;;;;;;;38.50;23.27;;;;;;;6.86;79.05;100100.42;1752058;81;25508;-59
2021/10/13 06:08:58;;;;;;;44.30;24.98;;;;;;;6.88;79.20;100109.81;1751932;81;26250;-59
2021/10/13 06:11:25;;;;;;;38.73;23.70;;;;;;;6.90;79.32;100107.63;1752055;81;25506;-59
2021/10/13 06:13:52;;;;;;;42.75;25.92;;;;;;;6.95;79.40;100113.50;1751963;81;27449;-59
2021/10/13 06:16:23;;;;;;;41.40;23.65;;;;;;;6.99;79.27;100116.41;1751982;81;25700;-59
2021/10/13 06:18:53;;;;;;;45.17;23.73;;;;;;;7.02;79.42;100123.34;1752147;81;25494;-59
2021/10/13 06:21:23;;;;;;;;;;;;;;;7.05;79.39;100124.12;1754618;81;26414;-59
2021/10/13 06:23:50;;;;;;;42.23;24.57;;;;;;;7.07;79.51;100132.69;1752115;81;25463;-59
2021/10/13 06:26:17;;;;;;;42.78;24.12;;;;;;;7.08;79.54;100134.30;1752039;81;27961;-59
2021/10/13 06:28:44;;;;;;;43.42;25.02;;;;;;;7.14;79.53;100136.92;1751976;81;25700;-58
2021/10/13 06:31:13;;;;;;;44.05;25.15;;;;;;;7.18;79.68;100135.25;1752024;81;25514;-58
2021/10/13 06:33:40;;;;;;;43.70;24.57;;;;;;;7.19;79.61;100140.34;1752009;81;25652;-58
2021/10/13 06:36:09;;;;;;;43.38;23.77;;;;;;;7.22;79.73;100134.91;1752079;81;25685;-59
2021/10/13 06:38:37;;;;;;;;;;;;;;;7.25;79.65;100147.26;1754596;81;27322;-59
2021/10/13 06:41:06;;;;;;;37.78;22.87;;;;;;;7.31;79.90;100147.19;1751948;81;25468;-58
2021/10/13 06:43:33;;;;;;;39.05;23.67;;;;;;;7.36;79.89;100145.77;1752155;81;25637;-58
2021/10/13 06:46:01;;;;;;;36.40;23.10;;;;;;;7.40;79.84;100155.64;1751993;81;26255;-58
2021/10/13 06:48:28;;;;;;;41.53;23.98;;;;;;;7.44;79.71;100151.30;1752060;81;25696;-59
2021/10/13 06:50:55;;;;;;;37.55;21.75;;;;;;;7.49;79.65;100153.09;1751966;81;27344;-59
2021/10/13 06:53:22;;;;;;;33.45;21.65;;;;;;;7.51;79.46;100158.19;1706556;83;25511;-58
2021/10/13 06:55:49;;;;;;;34.55;21.23;;;;;;;7.55;79.32;100159.23;1718575;83;25698;-58
2021/10/13 06:58:15;;;;;;;30.23;20.05;;;;;;;7.59;79.43;100168.30;1689603;84;26194;-59
2021/10/13 07:00:42;;;;;;;34.50;18.57;;;;;;;7.61;79.23;100166.11;1718438;83;25432;-58
2021/10/13 07:03:09;;;;;;;26.77;17.90;;;;;;;7.64;79.21;100172.27;1718479;81;27375;-59
2021/10/13 07:05:37;;;;;;;26.60;17.20;;;;;;;7.65;79.06;100171.98;1688048;85;25523;-59
2021/10/13 07:10:53;;;;;;;22.80;14.23;;;;;;;7.69;78.86;100177.58;1745751;82;26164;-59
2021/10/13 07:13:19;;;;;;;25.20;15.83;;;;;;;7.70;78.69;100184.57;1747572;82;25611;-59
2021/10/13 07:15:46;;;;;;;20.52;14.40;;;;;;;7.69;78.61;100177.58;1802708;79;28332;-59
2021/10/13 07:18:13;;;;;;;22.20;14.95;;;;;;;7.72;78.55;100186.97;1802688;79;25717;-59
2021/10/13 07:20:40;;;;;;;25.23;14.70;;;;;;;7.74;78.55;100187.47;1802700;79;25690;-59
2021/10/13 07:23:08;;;;;;;22.32;15.15;;;;;;;7.76;78.44;100192.81;1802658;79;26234;-59
2021/10/13 07:25:35;;;;;;;25.05;16.02;;;;;;;7.76;78.46;100195.50;1802734;79;25513;-59
2021/10/13 07:28:02;;;;;;;21.25;14.58;;;;;;;7.82;78.61;100202.98;1802691;79;27972;-60
2021/10/13 07:30:31;;;;;;;24.47;14.20;;;;;;;7.86;78.51;100202.63;1802503;79;27393;-59
2021/10/13 07:32:58;;;;;;;21.45;14.33;;;;;;;7.90;78.42;100206.36;1802825;79;25582;-59
2021/10/13 07:35:27;;;;;;;22.15;13.72;;;;;;;7.95;78.43;100203.59;1802645;79;25622;-57
2021/10/13 07:37:56;;;;;;;19.20;13.32;;;;;;;7.98;78.15;100205.67;1802858;79;25515;-59
2021/10/13 07:40:24;;;;;;;20.82;13.65;;;;;;;8.06;78.36;100211.51;1802768;79;27311;-58
2021/10/13 07:42:52;;;;;;;17.60;12.90;;;;;;;8.11;78.27;100207.38;1802599;79;25548;-58
2021/10/13 07:45:19;;;;;;;20.75;13.53;;;;;;;8.17;78.18;100207.53;1802679;79;25667;-59
2021/10/13 07:47:46;;;;;;;19.87;13.20;;;;;;;8.24;78.15;100213.37;1809015;78;25639;-58
2021/10/13 07:50:14;;;;;;;21.52;12.50;;;;;;;8.30;77.93;100211.38;1819163;78;25634;-58
2021/10/13 07:52:41;;;;;;;17.57;12.18;;;;;;;8.32;77.39;100206.48;1819162;78;27935;-58
2021/10/13 07:55:09;;;;;;;18.30;12.40;;;;;;;8.32;77.17;100208.62;1819090;78;25505;-58
2021/10/13 07:57:36;;;;;;;18.52;12.53;;;;;;;8.33;76.91;100216.97;1819166;78;25548;-59
2021/10/13 08:00:05;;;;;;;18.52;11.83;;;;;;;8.34;76.78;100221.28;1819074;78;25629;-58
2021/10/13 08:02:32;;;;;;;18.15;12.70;;;;;;;8.35;76.71;100222.86;1819338;78;25662;-59
2021/10/13 08:04:59;;;;;;;17.73;11.33;;;;;;;8.34;76.50;100226.67;1819152;78;27297;-58
2021/10/13 08:07:26;;;;;;;15.80;10.72;;;;;;;8.32;76.14;100230.74;1819074;78;25433;-59
2021/10/13 08:09:53;;;;;;;20.52;11.93;;;;;;;8.33;76.29;100231.01;1806972;78;25497;-59
2021/10/13 08:12:20;;;;;;;18.92;10.95;;;;;;;8.35;76.28;100232.30;1795223;79;25606;-58
2021/10/13 08:14:46;;;;;;;19.65;10.82;;;;;;;8.39;76.50;100236.55;1795320;79;25671;-59
2021/10/13 08:17:13;;;;;;;14.18;10.60;;;;;;;8.47;76.23;100233.20;1795366;79;26551;-59
2021/10/13 08:19:40;;;;;;;17.07;9.43;;;;;;;8.58;76.71;100228.42;1795120;79;27126;-58
2021/10/13 08:22:07;;;;;;;14.40;9.83;;;;;;;9.24;81.54;100229.63;1795286;79;25564;-59
2021/10/13 08:24:35;;;;;;;13.18;9.38;;;;;;;10.01;79.16;100223.88;1795219;79;26199;-57
2021/10/13 08:27:03;;;;;;;;;;;;;;;10.78;77.16;100228.20;1795138;79;25477;-58
2021/10/13 08:29:30;;;;;;;14.25;9.33;;;;;;;11.56;79.15;100234.94;1795255;79;27318;-59
2021/10/13 08:31:57;;;;;;;11.00;8.73;;;;;;;12.51;77.63;100224.65;1795187;79;25606;-58
2021/10/13 08:34:24;;;;;;;9.75;7.70;;;;;;;13.25;75.82;100231.29;1795507;79;25621;-58
2021/10/13 08:36:50;;;;;;;14.45;7.87;;;;;;;13.73;72.44;100236.83;1795400;79;25743;-58
2021/10/13 08:39:17;;;;;;;10.13;7.53;;;;;;;14.11;71.13;100236.44;1795534;79;25557;-58
2021/10/13 08:41:44;;;;;;;11.35;8.38;;;;;;;14.85;69.76;100236.67;1795385;79;27315;-58
2021/10/13 08:44:15;;;;;;;10.05;6.92;;;;;;;15.45;66.20;100236.98;1795310;79;25663;-58
2021/10/13 08:46:43;;;;;;;10.40;7.22;;;;;;;15.98;65.99;100230.96;1795410;79;25481;-58
2021/10/13 08:49:10;;;;;;;12.28;6.97;;;;;;;16.60;64.71;100230.65;1795390;79;25602;-59
2021/10/13 08:51:44;;;;;;;10.43;7.58;;;;;;;17.25;63.14;100228.95;1795413;79;25537;-58
2021/10/13 08:54:13;;;;;;;10.35;6.55;;;;;;;18.00;62.43;100226.27;1794540;79;27273;-59
2021/10/13 08:56:37;;;;;;;;;;;;;;;18.70;60.56;100236.73;1789096;80;25614;-59
2021/10/13 08:59:04;;;;;;;8.83;6.20;;;;;;;19.35;58.25;100234.45;1787060;80;25537;-59
2021/10/13 09:01:31;;;;;;;7.30;5.53;;;;;;;19.81;56.47;100233.52;1805572;79;26342;-59
2021/10/13 09:04:01;;;;;;;8.40;5.47;;;;;;;20.18;54.85;100243.17;1806136;79;25510;-59
2021/10/13 09:06:31;;;;;;;7.95;5.30;;;;;;;20.46;52.27;100244.04;1805992;79;27973;-59
2021/10/13 09:09:03;;;;;;;10.45;4.90;;;;;;;20.43;49.87;100250.31;1805789;78;25489;-58
2021/10/13 09:11:47;;;;;;;5.53;4.90;;;;;;;20.54;49.42;100247.66;1786936;80;25507;-59
2021/10/13 09:14:27;;;;;;;12.80;5.78;;;;;;;20.31;47.86;100249.99;1803797;79;26277;-58
2021/10/13 09:17:08;;;;;;;11.10;5.20;;;;;;;20.21;48.05;100251.23;1803316;79;25589;-59
2021/10/13 09:19:43;;;;;;;6.60;6.00;;;;;;;20.39;48.04;100244.56;1801162;78;27375;-59
2021/10/13 09:22:14;;;;;;;7.87;5.60;;;;;;;20.44;47.33;100243.63;1777220;80;25450;-59
2021/10/13 09:24:45;;;;;;;9.18;6.40;;;;;;;20.75;46.70;100244.34;1816721;79;25618;-59
2021/10/13 09:27:25;;;;;;;6.12;5.30;;;;;;;20.97;46.89;100244.52;1815709;79;26250;-59
2021/10/13 09:30:10;;;;;;;5.00;3.85;;;;;;;21.42;46.41;100247.99;1816714;79;25698;-59
2021/10/13 09:32:44;;;;;;;6.20;3.95;;;;;;;21.94;46.00;100252.00;1816720;79;27980;-59
2021/10/13 09:35:12;;;;;;;9.53;3.60;;;;;;;22.37;43.92;100257.09;1816591;79;25670;-59
2021/10/13 09:37:50;;;;;;;5.97;3.80;;;;;;;22.18;40.35;100261.52;1816676;79;25469;-59
2021/10/13 09:40:30;;;;;;;4.72;4.03;;;;;;;21.82;40.57;100258.64;1778419;80;25610;-59
2021/10/13 09:43:00;;;;;;;5.72;4.12;;;;;;;22.11;41.53;100252.64;1778485;80;25706;-59
2021/10/13 09:45:30;;;;;;;5.87;3.50;;;;;;;22.17;40.19;100253.86;1778414;80;27299;-59
2021/10/13 09:48:06;;;;;;;7.67;3.92;;;;;;;21.66;39.89;100250.70;1778419;80;25510;-59
2021/10/13 09:50:43;;;;;;;3.30;2.98;;;;;;;21.78;40.45;100250.96;1778397;80;25549;-60
2021/10/13 09:53:30;;;;;;;3.62;3.05;;;;;;;21.53;40.32;100242.58;1778555;80;25564;-59
2021/10/13 09:55:57;;;;;;;6.15;3.00;;;;;;;21.78;40.35;100246.83;1778521;80;25734;-58
2021/10/13 09:58:37;;;;;;;5.00;2.70;;;;;;;21.68;40.04;100252.48;1778563;80;27321;-58
2021/10/13 10:01:14;;;;;;;3.45;2.85;;;;;;;21.85;39.57;100247.45;1778446;80;25838;-58
2021/10/13 10:03:44;;;;;;;3.10;2.80;;;;;;;21.97;38.36;100247.10;1778449;80;25581;-58
2021/10/13 10:06:10;;;;;;;;;;;;;;;21.30;37.88;100242.78;1781062;80;26230;-59
2021/10/13 10:08:58;;;;;;;5.08;2.67;;;;;;;21.05;38.38;100243.41;1778474;80;25549;-59
2021/10/13 10:11:39;;;;;;;3.12;2.60;;;;;;;20.60;37.64;100247.53;1739118;80;27416;-59
2021/10/13 10:14:32;;;;;;;3.70;2.58;;;;;;;19.58;38.14;100249.44;1781153;80;25537;-59
2021/10/13 10:17:00;;;;;;;2.87;2.30;;;;;;;19.34;40.18;100257.53;1702253;83;25716;-59
2021/10/13 10:19:30;;;;;;;4.53;2.77;;;;;;;19.92;39.87;100253.64;1719249;83;25731;-59
2021/10/13 10:22:10;;;;;;;3.92;2.77;;;;;;;19.91;39.47;100253.45;1719081;83;25723;-58
2021/10/13 10:24:41;;;;;;;3.45;2.33;;;;;;;20.06;38.98;100257.16;1719053;83;29477;-58
2021/10/13 10:27:29;;;;;;;3.75;2.37;;;;;;;19.46;39.15;100251.05;1684110;85;25537;-58
2021/10/13 10:30:17;;;;;;;5.53;2.87;;;;;;;18.98;39.64;100259.14;1684223;85;25673;-58
2021/10/13 10:32:55;;;;;;;4.58;2.20;;;;;;;18.60;39.89;100263.56;1684211;85;26296;-59
2021/10/13 10:35:22;;;;;;;2.75;2.37;;;;;;;18.58;41.43;100261.77;1682403;85;25586;-59
2021/10/13 10:37:55;;;;;;;3.08;2.77;;;;;;;18.68;40.62;100265.86;1684192;85;27237;-58
2021/10/13 10:40:32;;;;;;;4.65;2.70;;;;;;;18.55;40.95;100263.86;1681078;85;25521;-61
2021/10/13 10:43:21;;;;;;;3.85;2.47;;;;;;;18.37;39.45;100260.81;1684211;85;25669;-60
2021/10/13 10:45:55;;;;;;;4.27;2.20;;;;;;;18.13;40.47;100270.68;1684483;85;25748;-59
2021/10/13 10:48:25;;;;;;;2.52;2.33;;;;;;;18.41;41.17;100267.13;1683401;85;25566;-59
2021/10/13 10:50:57;;;;;;;5.17;3.10;;;;;;;18.29;40.18;100272.77;1684175;85;27998;-58
2021/10/13 10:53:39;;;;;;;3.90;3.02;;;;;;;17.88;40.23;100273.12;1695546;82;25692;-59
2021/10/13 10:56:29;;;;;;;4.78;3.17;;;;;;;17.45;40.55;100274.09;1733611;82;25588;-59
2021/10/13 10:59:11;;;;;;;5.35;3.85;;;;;;;17.80;42.07;100274.67;1733546;82;25675;-59
2021/10/13 11:01:40;;;;;;;9.60;4.55;;;;;;;18.02;41.37;100281.42;1733653;82;25640;-58
2021/10/13 11:04:10;;;;;;;4.42;3.92;;;;;;;17.87;40.48;100278.95;1744260;81;28131;-57
2021/10/13 11:06:39;;;;;;;5.75;3.72;;;;;;;17.71;41.27;100277.04;1770044;81;25664;-58
2021/10/13 11:09:12;;;;;;;4.12;2.92;;;;;;;17.70;41.45;100272.70;1744281;82;25695;-57
2021/10/13 11:11:45;;;;;;;4.70;3.37;;;;;;;17.92;41.03;100278.09;1783837;80;25853;-58
2021/10/13 11:14:21;;;;;;;3.77;3.20;;;;;;;18.16;41.43;100283.06;1803334;79;25509;-57
2021/10/13 11:16:56;;;;;;;5.33;3.35;;;;;;;18.27;40.77;100284.08;1802509;79;27971;-57
2021/10/13 11:19:29;;;;;;;4.62;3.30;;;;;;;18.07;40.46;100286.61;1803181;79;25493;-58
2021/10/13 11:22:06;;;;;;;3.67;3.37;;;;;;;17.95;40.79;100289.49;1803187;79;25603;-58
2021/10/13 11:24:39;;;;;;;8.68;3.60;;;;;;;17.73;40.40;100284.89;1803170;79;25698;-58
2021/10/13 11:27:06;;;;;;;4.30;3.10;;;;;;;17.64;41.25;100285.64;1803235;79;25517;-58
2021/10/13 11:29:36;;;;;;;4.72;3.30;;;;;;;17.71;41.13;100278.99;1803177;79;27304;-58
2021/10/13 11:32:11;;;;;;;5.85;3.12;;;;;;;17.96;41.38;100278.75;1811410;79;25959;-58
2021/10/13 11:34:40;;;;;;;4.35;3.80;;;;;;;18.06;40.67;100285.02;1803223;79;25520;-59
2021/10/13 11:37:07;;;;;;;;;;;;;;;17.86;40.73;100286.38;1805910;78;25674;-59
2021/10/13 11:39:39;;;;;;;7.95;5.00;;;;;;;17.49;40.50;100291.39;1803221;79;25671;-59
2021/10/13 11:42:12;;;;;;;3.90;3.50;;;;;;;17.07;40.81;100294.10;1785167;79;27320;-58